Country
Station

 

Weather  for  Blackpool Airport  -  United Kingdom    United Kingdom

  
11 °C (52 °F)
    
 
 

Current METAR for Blackpool Airport is :

EGNH 200650Z 09007KT CAVOK 11/05 Q1032

 

This is a report for Blackpool Airport - United Kingdom.
 
The report was made 26 minutes ago, at 06:50 UTC .
The wind was blowing at a speed of 3.6 meters per second (8.1 miles per hour) from east (090°).
 
The temperature was 11 °C (52 °F), with a dew-point at 5 °C (41 °F).
The atmospheric pressure was 1032 hPa (30.47 inHg).
The relative humidity was 66.5%.
 
There were no clouds below 1500 meter (5000 feet) and no cumulonimbus clouds.
 
The overall visibility was greater than 10 kilometers (6.2 miles).
 

 
 
 
 

Country :   A   B   C   D   E   F   G   H   I   J   K   L   M   N   O   P   Q   R   S   T   U   V   W   Y   Z

 

Site Info  |  Disclaimer  |  Credits  |  Privacy
Contact us  |  Add to favorites
© 2013-2019 METARs - All rights reserved